Time;durP1;ratioP1;P1;durP2;ratioP2;P2;SDS_P1;SDS_P2;PMS_P1;PMS_P2;Temp;Humidity;BMP_temperature;BMP_pressure;BME280_temperature;BME280_humidity;BME280_pressure;Samples;Min_cycle;Max_cycle;Signal;HPM_P1;HPM_P2
2023/07/22 00:01:37;;;;;;;101.88;95.20;;;12.40;80.10;;;;;;6252673;22;20114;-91
2023/07/22 00:04:05;;;;;;;103.80;97.20;;;12.50;80.00;;;;;;6250797;22;20358;-90
2023/07/22 00:06:33;;;;;;;104.07;97.53;;;12.50;80.00;;;;;;6248928;22;20026;-91
2023/07/22 00:09:02;;;;;;;80.97;76.30;;;12.50;79.90;;;;;;6248239;22;20030;-91
2023/07/22 00:11:28;;;;;;;88.25;82.88;;;12.50;79.80;;;;;;6227250;22;20106;-92
2023/07/22 00:14:14;;;;;;;151.18;142.05;;;12.50;79.70;;;;;;6251724;22;20020;-90
2023/07/22 00:17:01;;;;;;;;;;;;;;;;;;;;;
2023/07/22 00:19:30;;;;;;;115.70;108.80;;;12.50;79.40;;;;;;6240577;22;20026;-90
2023/07/22 00:22:06;;;;;;;98.32;92.40;;;12.50;79.30;;;;;;6253311;22;20073;-90
2023/07/22 00:24:56;;;;;;;54.47;50.97;;;12.50;79.10;;;;;;6197850;22;20460;-91
2023/07/22 00:27:34;;;;;;;;;;;;;;;;;;;;;
2023/07/22 00:30:11;;;;;;;71.85;67.55;;;12.30;79.00;;;;;;6279021;22;20095;-91
2023/07/22 00:32:40;;;;;;;54.05;50.38;;;12.30;79.00;;;;;;6240899;22;20015;-88
2023/07/22 00:35:14;;;;;;;65.38;61.28;;;12.20;79.10;;;;;;6228533;22;20073;-90
2023/07/22 00:38:16;;;;;;;;;;;;;;;;;;;;;
2023/07/22 00:40:50;;;;;;;41.03;38.22;;;12.20;79.20;;;;;;6274093;22;20055;-92
2023/07/22 00:43:26;;;;;;;64.50;60.55;;;12.10;79.30;;;;;;6196565;22;20023;-91
2023/07/22 00:46:10;;;;;;;52.80;49.13;;;12.10;79.60;;;;;;6254388;22;20018;-90
2023/07/22 00:48:40;;;;;;;70.97;66.30;;;12.00;79.70;;;;;;6178648;23;20048;-91
2023/07/22 00:51:29;;;;;;;;;;;;;;;;;;;;;
2023/07/22 00:54:51;;;;;;;52.03;48.05;;;12.00;80.00;;;;;;6249393;22;20077;-92
2023/07/22 00:57:29;;;;;;;26.90;24.33;;;11.90;80.30;;;;;;6133666;22;20017;-91
2023/07/22 01:00:13;;;;;;;64.32;59.38;;;11.90;80.10;;;;;;6251832;22;20016;-91
2023/07/22 01:09:24;;;;;;;24.98;22.00;;;11.80;80.50;;;;;;6247691;22;20019;-91
2023/07/22 01:12:13;;;;;;;30.58;27.95;;;11.70;80.50;;;;;;6251864;22;20015;-91
2023/07/22 01:15:13;;;;;;;;;;;;;;;;;;;;;
2023/07/22 01:18:04;;;;;;;;;;;;;;;;;;;;;
2023/07/22 01:21:08;;;;;;;;;;;;;;;;;;;;;
2023/07/22 01:23:49;;;;;;;25.95;21.80;;;11.70;80.90;;;;;;6253665;22;20020;-91
2023/07/22 01:26:53;;;;;;;;;;;;;;;;;;;;;
2023/07/22 01:30:01;;;;;;;;;;;;;;;;;;;;;
2023/07/22 01:35:48;;;;;;;18.70;15.18;;;11.50;80.80;;;;;;6239267;22;20338;-90
2023/07/22 01:38:29;;;;;;;52.08;48.28;;;11.50;81.00;;;;;;6245035;22;20016;-91
2023/07/22 01:41:26;;;;;;;24.33;21.83;;;11.40;80.90;;;;;;6228348;22;20099;-91
2023/07/22 01:44:31;;;;;;;25.25;22.83;;;11.40;81.00;;;;;;6151369;22;20024;-91
2023/07/22 01:47:25;;;;;;;;;;;;;;;;;;;;;
2023/07/22 01:50:19;;;;;;;;;;;;;;;;;;;;;
2023/07/22 01:52:48;;;;;;;21.65;17.75;;;11.30;81.20;;;;;;6127486;23;20652;-91
2023/07/22 01:58:34;;;;;;;18.20;11.15;;;11.20;81.20;;;;;;6124507;23;20017;-92
2023/07/22 02:01:21;;;;;;;;;;;;;;;;;;;;;
2023/07/22 02:04:10;;;;;;;19.10;15.52;;;11.10;81.20;;;;;;6160033;23;20072;-91
2023/07/22 02:06:50;;;;;;;22.27;13.70;;;11.10;81.40;;;;;;6156627;23;20151;-91
2023/07/22 02:09:21;;;;;;;23.33;16.88;;;11.10;81.40;;;;;;6143470;23;20100;-90
2023/07/22 02:11:55;;;;;;;20.48;15.30;;;11.10;81.40;;;;;;6161238;23;20083;-91
2023/07/22 02:15:05;;;;;;;19.25;15.60;;;11.10;81.50;;;;;;6141549;23;20449;-90
2023/07/22 02:18:02;;;;;;;;;;;;;;;;;;;;;
2023/07/22 02:20:34;;;;;;;;;;;;;;;;;;;;;
2023/07/22 02:23:22;;;;;;;18.30;11.48;;;11.00;81.80;;;;;;6238586;22;20016;-91
2023/07/22 02:29:03;;;;;;;22.80;11.38;;;11.00;81.80;;;;;;6141598;22;20022;-90
2023/07/22 02:31:29;;;;;;;;;;;11.00;81.70;;;;;;6209077;22;20027;-90
2023/07/22 02:34:23;;;;;;;19.20;9.77;;;10.90;81.80;;;;;;6251355;22;19915;-92
2023/07/22 02:36:51;;;;;;;20.70;10.68;;;10.90;81.80;;;;;;6247404;22;20019;-91
2023/07/22 02:39:20;;;;;;;19.40;12.02;;;10.90;81.70;;;;;;6227771;22;20016;-90
2023/07/22 02:42:15;;;;;;;;;;;;;;;;;;;;;
2023/07/22 02:45:20;;;;;;;22.17;9.98;;;10.80;81.80;;;;;;6215538;22;20097;-91
2023/07/22 02:48:01;;;;;;;;;;;;;;;;;;;;;
2023/07/22 02:50:40;;;;;;;19.48;11.75;;;10.80;81.70;;;;;;6255665;22;20015;-92
2023/07/22 02:53:31;;;;;;;17.95;11.35;;;10.80;81.70;;;;;;6250743;22;20023;-91
2023/07/22 02:56:07;;;;;;;18.60;9.52;;;10.70;81.80;;;;;;6253838;22;20019;-91
2023/07/22 02:59:20;;;;;;;;;;;;;;;;;;;;;
2023/07/22 03:01:46;;;;;;;14.52;8.25;;;10.70;81.80;;;;;;6233747;22;20077;-91
2023/07/22 03:07:44;;;;;;;18.63;7.95;;;10.70;81.80;;;;;;6223491;22;20118;-91
2023/07/22 03:10:18;;;;;;;18.83;9.13;;;10.60;81.90;;;;;;6229786;22;20023;-92
2023/07/22 03:13:33;;;;;;;18.40;10.07;;;10.70;81.90;;;;;;6211954;22;20490;-90
2023/07/22 03:16:08;;;;;;;;;;;;;;;;;;;;;
2023/07/22 03:18:51;;;;;;;19.77;9.70;;;10.60;81.80;;;;;;6186377;22;20021;-91
2023/07/22 03:21:48;;;;;;;20.17;11.68;;;10.60;81.90;;;;;;6228211;22;20102;-91
2023/07/22 03:24:49;;;;;;;21.48;10.98;;;10.60;81.90;;;;;;6208697;22;20058;-90
2023/07/22 03:27:25;;;;;;;;;;;;;;;;;;;;;
2023/07/22 03:30:39;;;;;;;23.17;13.15;;;10.50;82.00;;;;;;6254163;22;20018;-91
2023/07/22 03:33:58;;;;;;;;;;;;;;;;;;;;;
2023/07/22 03:36:49;;;;;;;;;;;;;;;;;;;;;
2023/07/22 03:40:29;;;;;;;25.80;12.82;;;10.50;82.00;;;;;;6178160;23;20455;-91
2023/07/22 03:43:29;;;;;;;;;;;;;;;;;;;;;
2023/07/22 03:46:24;;;;;;;25.83;11.77;;;10.40;82.20;;;;;;6187302;23;20408;-92
2023/07/22 03:48:56;;;;;;;22.73;11.50;;;10.40;82.20;;;;;;6106369;23;20029;-91
2023/07/22 03:51:55;;;;;;;19.52;10.65;;;10.40;82.20;;;;;;6168789;23;20020;-91
2023/07/22 04:01:37;;;;;;;19.27;9.80;;;10.50;82.10;;;;;;6030282;23;20123;-91
2023/07/22 04:04:28;;;;;;;19.23;9.75;;;10.60;82.40;;;;;;6022083;23;20534;-93
2023/07/22 04:07:14;;;;;;;16.73;9.40;;;10.60;82.40;;;;;;6018535;23;20060;-91
2023/07/22 04:13:36;;;;;;;19.20;9.45;;;10.70;82.20;;;;;;6108244;23;20024;-92
2023/07/22 04:16:17;;;;;;;15.03;8.10;;;10.80;82.40;;;;;;6136078;23;20013;-91
2023/07/22 04:19:21;;;;;;;;;;;;;;;;;;;;;
2023/07/22 04:22:13;;;;;;;16.15;8.00;;;10.90;82.10;;;;;;6113125;23;20052;-92
2023/07/22 04:24:54;;;;;;;;;;;;;;;;;;;;;
2023/07/22 04:27:47;;;;;;;;;;;;;;;;;;;;;
2023/07/22 04:30:21;;;;;;;15.52;10.40;;;11.00;81.90;;;;;;6181653;22;20066;-91
2023/07/22 04:32:50;;;;;;;17.70;12.25;;;11.00;81.90;;;;;;6240561;22;20019;-92
2023/07/22 04:39:13;;;;;;;18.27;9.50;;;11.10;81.90;;;;;;6250209;22;20023;-91
2023/07/22 04:44:55;;;;;;;;;;;;;;;;;;;;;
2023/07/22 04:47:25;;;;;;;21.20;16.40;;;11.40;82.20;;;;;;6236047;22;20020;-91
2023/07/22 04:50:26;;;;;;;17.13;14.05;;;11.40;82.00;;;;;;6203888;22;20319;-91
2023/07/22 04:53:05;;;;;;;;;;;;;;;;;;;;;
2023/07/22 04:56:02;;;;;;;;;;;;;;;;;;;;;
2023/07/22 04:58:34;;;;;;;21.38;18.05;;;11.50;81.90;;;;;;6211877;22;20019;-92
2023/07/22 05:01:21;;;;;;;22.38;20.25;;;11.60;81.90;;;;;;6249956;22;20028;-92
2023/07/22 05:04:07;;;;;;;24.02;20.30;;;11.70;81.70;;;;;;6166447;23;20032;-92
2023/07/22 05:10:11;;;;;;;;;;;;;;;;;;;;;
2023/07/22 05:12:51;;;;;;;20.15;16.20;;;11.70;81.60;;;;;;6250437;22;20024;-92
2023/07/22 05:15:53;;;;;;;;;;;;;;;;;;;;;
2023/07/22 05:18:37;;;;;;;;;;;;;;;;;;;;;
2023/07/22 05:21:33;;;;;;;54.17;49.90;;;11.90;81.70;;;;;;6253199;22;20070;-92
2023/07/22 05:24:56;;;;;;;;;;;;;;;;;;;;;
2023/07/22 05:28:05;;;;;;;25.60;23.00;;;12.10;81.60;;;;;;6143116;23;20078;-92
2023/07/22 05:31:10;;;;;;;45.35;41.58;;;12.20;81.60;;;;;;6159428;23;20395;-90
2023/07/22 05:34:03;;;;;;;53.50;49.38;;;12.30;81.50;;;;;;6217573;22;20028;-91
2023/07/22 05:40:37;;;;;;;63.50;58.83;;;12.60;81.20;;;;;;6088215;23;20021;-92
2023/07/22 05:43:59;;;;;;;;;;;;;;;;;;;;;
2023/07/22 05:47:35;;;;;;;92.97;86.47;;;12.90;81.10;;;;;;6090796;23;20108;-92
2023/07/22 05:51:16;;;;;;;103.38;96.22;;;13.00;81.10;;;;;;6029242;23;20026;-92
2023/07/22 05:58:09;;;;;;;;;;;;;;;;;;;;;
2023/07/22 06:01:32;;;;;;;191.02;178.90;;;13.30;80.60;;;;;;6065247;23;20591;-92
2023/07/22 06:04:28;;;;;;;;;;;;;;;;;;;;;
2023/07/22 06:08:08;;;;;;;;;;;;;;;;;;;;;
2023/07/22 06:11:19;;;;;;;171.73;160.55;;;13.60;79.70;;;;;;5952466;24;20903;-92
2023/07/22 06:14:43;;;;;;;157.23;147.82;;;13.60;80.10;;;;;;5891131;23;20028;-94
2023/07/22 06:21:51;;;;;;;186.48;174.95;;;13.80;79.50;;;;;;5860517;24;20104;-92
2023/07/22 06:25:17;;;;;;;219.60;205.63;;;13.80;79.60;;;;;;5912356;23;20019;-92
2023/07/22 06:32:19;;;;;;;210.35;197.10;;;13.90;79.50;;;;;;5959046;23;20039;-93
2023/07/22 06:36:00;;;;;;;;;;;;;;;;;;;;;
2023/07/22 06:39:17;;;;;;;165.43;155.88;;;14.00;79.70;;;;;;5843964;24;20048;-92
2023/07/22 06:43:09;;;;;;;262.10;245.70;;;14.10;79.50;;;;;;5894193;24;20029;-95
2023/07/22 07:00:23;;;;;;;153.88;144.50;;;14.30;79.00;;;;;;5054817;27;20376;-91
2023/07/22 07:02:50;;;;;;;322.10;302.30;;;14.80;78.90;;;;;;4998759;28;20132;-91
2023/07/22 07:05:19;;;;;;;348.05;325.75;;;14.90;78.60;;;;;;4989742;28;20075;-92
2023/07/22 07:07:45;;;;;;;322.98;302.63;;;15.00;78.40;;;;;;5013959;28;20403;-91
2023/07/22 07:10:11;;;;;;;354.30;331.88;;;15.10;78.40;;;;;;5027298;28;20447;-91
2023/07/22 07:12:43;;;;;;;374.95;350.92;;;15.10;78.10;;;;;;5013868;28;20045;-92
2023/07/22 07:15:11;;;;;;;369.60;345.58;;;15.20;77.70;;;;;;4999024;28;20056;-92
2023/07/22 07:17:37;;;;;;;356.75;333.67;;;15.20;77.90;;;;;;5002287;28;20049;-92
2023/07/22 07:20:04;;;;;;;371.95;348.15;;;15.30;77.60;;;;;;5007369;28;20133;-92
2023/07/22 07:22:30;;;;;;;359.25;336.60;;;15.30;77.60;;;;;;5014669;28;20052;-90
2023/07/22 07:24:56;;;;;;;358.70;335.27;;;15.30;77.50;;;;;;5002948;28;20056;-92
2023/07/22 07:27:35;;;;;;;370.73;346.65;;;15.30;77.30;;;;;;4996972;28;20050;-92
2023/07/22 07:30:01;;;;;;;371.67;347.38;;;15.30;77.20;;;;;;5016295;28;20412;-92
2023/07/22 07:32:32;;;;;;;354.35;331.77;;;15.30;77.30;;;;;;5010092;28;20079;-93
2023/07/22 07:34:58;;;;;;;374.67;350.65;;;15.30;77.20;;;;;;4993436;28;20498;-93
2023/07/22 07:37:27;;;;;;;378.13;353.30;;;15.30;77.40;;;;;;4997225;28;20051;-92
2023/07/22 07:40:08;;;;;;;372.27;348.08;;;15.30;77.60;;;;;;4992670;28;20042;-93
2023/07/22 07:42:35;;;;;;;371.88;347.83;;;15.40;77.60;;;;;;4989543;28;20181;-91
2023/07/22 07:45:04;;;;;;;388.13;362.67;;;15.40;77.60;;;;;;5013374;28;20049;-92
2023/07/22 07:47:33;;;;;;;399.27;373.10;;;15.50;77.70;;;;;;5005304;28;20052;-91
2023/07/22 07:50:04;;;;;;;376.33;351.70;;;15.60;77.90;;;;;;5009976;28;20124;-91
2023/07/22 07:52:31;;;;;;;371.75;347.92;;;15.60;77.20;;;;;;4998205;28;20053;-90
2023/07/22 07:54:56;;;;;;;390.08;364.23;;;15.60;77.20;;;;;;5013832;28;20060;-90
2023/07/22 07:57:22;;;;;;;386.60;360.90;;;15.70;77.10;;;;;;5002718;28;20049;-90
2023/07/22 07:59:48;;;;;;;390.33;364.50;;;15.80;77.30;;;;;;5005350;28;20058;-91
2023/07/22 08:02:15;;;;;;;402.88;376.00;;;15.80;76.90;;;;;;4989465;28;20456;-91
2023/07/22 08:04:41;;;;;;;394.27;368.60;;;15.90;76.90;;;;;;4993936;28;20053;-92
2023/07/22 08:07:07;;;;;;;387.80;361.95;;;16.00;76.50;;;;;;4992040;28;20029;-90
2023/07/22 08:09:33;;;;;;;385.70;361.02;;;16.00;76.30;;;;;;4997255;28;20046;-92
2023/07/22 08:11:58;;;;;;;381.27;356.67;;;16.00;76.10;;;;;;5012207;28;20132;-91
2023/07/22 08:14:24;;;;;;;382.02;357.33;;;16.00;75.90;;;;;;4985345;28;20153;-91
2023/07/22 08:16:50;;;;;;;384.75;359.75;;;16.10;75.90;;;;;;4990925;28;20049;-92
2023/07/22 08:19:29;;;;;;;422.75;394.77;;;16.20;75.80;;;;;;4987060;28;20037;-93
2023/07/22 08:22:13;;;;;;;411.10;383.83;;;16.30;75.70;;;;;;5002793;28;20123;-92
2023/07/22 08:24:41;;;;;;;398.55;372.60;;;16.40;75.80;;;;;;4994356;28;20050;-92
2023/07/22 08:27:23;;;;;;;;;;;;;;;;;;;;;
2023/07/22 08:29:55;;;;;;;405.77;379.05;;;16.50;75.30;;;;;;5006001;28;20068;-94
2023/07/22 08:32:21;;;;;;;418.02;390.17;;;16.50;75.20;;;;;;5013884;28;20057;-92
2023/07/22 08:35:06;;;;;;;400.23;373.83;;;16.50;75.30;;;;;;5012427;28;20049;-92
2023/07/22 08:37:37;;;;;;;401.33;375.05;;;16.50;75.10;;;;;;5019671;28;20526;-90
2023/07/22 08:40:07;;;;;;;405.20;378.10;;;16.40;75.00;;;;;;4998559;28;20049;-90
2023/07/22 08:42:35;;;;;;;400.38;373.92;;;16.40;75.30;;;;;;4992217;28;20049;-90
2023/07/22 08:45:02;;;;;;;426.92;398.42;;;16.50;75.20;;;;;;5006193;28;20619;-90
2023/07/22 08:47:32;;;;;;;426.98;398.15;;;16.50;75.00;;;;;;4984928;28;20053;-90
2023/07/22 08:50:01;;;;;;;413.55;386.38;;;16.60;75.10;;;;;;4987260;28;20665;-88
2023/07/22 08:52:27;;;;;;;410.88;383.65;;;16.60;74.60;;;;;;5023689;28;20100;-88
2023/07/22 08:54:54;;;;;;;418.52;390.77;;;16.70;74.70;;;;;;5016233;28;20054;-89
2023/07/22 08:57:21;;;;;;;423.70;395.95;;;16.70;74.40;;;;;;5007712;28;20107;-87
2023/07/22 08:59:50;;;;;;;398.35;372.50;;;16.70;74.50;;;;;;5021239;28;20427;-87
2023/07/22 09:02:16;;;;;;;409.73;382.73;;;16.80;74.30;;;;;;5024746;28;20135;-89
2023/07/22 09:04:45;;;;;;;410.90;383.60;;;16.80;74.00;;;;;;5030357;28;20603;-90
2023/07/22 09:07:25;;;;;;;404.88;377.73;;;16.90;74.00;;;;;;5006271;28;20544;-92
2023/07/22 09:09:52;;;;;;;393.10;367.75;;;16.90;73.70;;;;;;4991765;28;20096;-86
2023/07/22 09:12:20;;;;;;;382.08;357.58;;;16.90;73.30;;;;;;5006994;28;20561;-87
2023/07/22 09:14:47;;;;;;;393.05;367.90;;;16.80;72.90;;;;;;4999202;28;20489;-89
2023/07/22 09:17:13;;;;;;;375.55;351.88;;;16.80;72.80;;;;;;5000344;28;20045;-88
2023/07/22 09:19:39;;;;;;;299.90;283.55;;;16.70;72.50;;;;;;5014169;28;20397;-87
2023/07/22 09:22:05;;;;;;;310.25;293.27;;;16.70;72.50;;;;;;5016641;28;20053;-85
2023/07/22 09:24:31;;;;;;;374.85;350.73;;;16.60;72.60;;;;;;5020432;28;20128;-85
2023/07/22 09:26:58;;;;;;;312.73;295.58;;;16.60;72.60;;;;;;5015708;28;20056;-87
2023/07/22 09:29:46;;;;;;;400.17;374.00;;;16.60;72.70;;;;;;5028851;28;20041;-85
2023/07/22 09:32:11;;;;;;;425.75;396.90;;;16.50;73.60;;;;;;4998383;28;20480;-87
2023/07/22 09:34:37;;;;;;;400.65;374.40;;;16.40;73.90;;;;;;5001088;28;20038;-87
2023/07/22 09:37:03;;;;;;;400.77;374.17;;;16.20;74.00;;;;;;5014209;28;20045;-86
2023/07/22 09:39:30;;;;;;;409.30;381.90;;;15.90;74.50;;;;;;5014811;28;20053;-87
2023/07/22 09:41:56;;;;;;;426.65;397.42;;;15.60;75.20;;;;;;5014257;28;20057;-87
2023/07/22 09:44:31;;;;;;;427.08;397.83;;;15.40;76.30;;;;;;4997430;28;20083;-87
2023/07/22 09:47:50;;;;;;;436.58;405.95;;;15.20;77.70;;;;;;5015882;28;20057;-93
2023/07/22 09:50:24;;;;;;;415.08;386.90;;;15.20;78.50;;;;;;4991048;28;20046;-91
2023/07/22 09:53:03;;;;;;;313.98;293.58;;;15.10;78.70;;;;;;4991522;28;20067;-94
2023/07/22 09:55:50;;;;;;;417.95;389.70;;;15.20;78.90;;;;;;5001326;28;20041;-93
2023/07/22 09:58:37;;;;;;;412.83;384.50;;;15.20;79.00;;;;;;4988187;28;20049;-91
2023/07/22 10:01:28;;;;;;;385.33;359.08;;;15.30;79.40;;;;;;5017731;28;20037;-92
2023/07/22 10:04:05;;;;;;;422.63;393.23;;;15.40;79.60;;;;;;4999865;28;20068;-91
2023/07/22 10:06:32;;;;;;;411.73;382.63;;;15.40;79.20;;;;;;5001461;28;20045;-91
2023/07/22 10:09:07;;;;;;;429.83;399.65;;;15.50;79.20;;;;;;5005625;28;20049;-89
2023/07/22 10:11:36;;;;;;;420.13;390.40;;;15.60;79.00;;;;;;5017609;28;20048;-90
2023/07/22 10:14:02;;;;;;;421.45;391.77;;;15.60;79.00;;;;;;4990425;28;20132;-93
2023/07/22 10:20:39;;;;;;;390.83;365.00;;;15.60;79.30;;;;;;4957786;28;20055;-89
2023/07/22 10:23:10;;;;;;;423.73;394.73;;;15.60;79.00;;;;;;5017991;28;20496;-89
2023/07/22 10:25:37;;;;;;;;;;;15.60;79.30;;;;;;5019761;28;20654;-88
2023/07/22 10:28:03;;;;;;;411.30;384.33;;;15.60;79.50;;;;;;4996133;28;20278;-88
2023/07/22 10:30:28;;;;;;;433.23;403.05;;;15.60;79.20;;;;;;5034314;28;20308;-90
2023/07/22 10:33:00;;;;;;;445.13;413.45;;;15.60;79.50;;;;;;5000938;28;20099;-95
2023/07/22 10:35:32;;;;;;;425.75;395.05;;;15.60;79.60;;;;;;5002551;28;20053;-89
2023/07/22 10:38:35;;;;;;;425.42;394.65;;;15.70;79.70;;;;;;4995792;28;20060;-90
2023/07/22 10:41:13;;;;;;;437.83;406.73;;;15.80;79.70;;;;;;4960540;28;20135;-91
2023/07/22 10:43:39;;;;;;;370.88;344.52;;;15.80;79.50;;;;;;4984831;28;20578;-90
2023/07/22 10:46:12;;;;;;;434.42;403.85;;;15.80;79.60;;;;;;4992979;28;20043;-90
2023/07/22 10:48:42;;;;;;;405.85;378.75;;;15.80;78.80;;;;;;4998784;28;20053;-92
2023/07/22 10:51:11;;;;;;;444.33;413.13;;;15.70;78.60;;;;;;4990875;28;20041;-91
2023/07/22 10:53:58;;;;;;;339.88;316.58;;;15.70;78.80;;;;;;5019903;28;20073;-90
2023/07/22 10:56:28;;;;;;;436.45;406.65;;;15.60;79.30;;;;;;4998358;28;20049;-90
2023/07/22 10:58:54;;;;;;;440.60;409.70;;;15.60;79.40;;;;;;5005566;28;20124;-87
2023/07/22 11:01:28;;;;;;;405.95;377.95;;;15.50;79.20;;;;;;5017890;28;20125;-89
2023/07/22 11:04:30;;;;;;;312.88;292.35;;;15.50;78.90;;;;;;5007755;28;21564;-88
2023/07/22 11:07:05;;;;;;;408.50;381.13;;;15.40;79.00;;;;;;4996736;28;20822;-88
2023/07/22 11:09:32;;;;;;;402.52;375.90;;;15.30;79.30;;;;;;5008759;28;20050;-89
2023/07/22 11:12:00;;;;;;;422.15;393.63;;;15.30;79.50;;;;;;5000712;28;20554;-89
2023/07/22 11:14:39;;;;;;;423.45;394.00;;;15.20;79.60;;;;;;5001119;28;20499;-90
2023/07/22 11:17:08;;;;;;;434.67;404.05;;;15.20;79.80;;;;;;4993830;28;20037;-88
2023/07/22 11:19:34;;;;;;;425.70;396.15;;;15.20;80.20;;;;;;4997759;28;20037;-89
2023/07/22 11:22:01;;;;;;;435.08;404.77;;;15.10;80.00;;;;;;5004599;28;20458;-89
2023/07/22 11:24:28;;;;;;;429.05;398.98;;;15.00;80.10;;;;;;5011924;28;20041;-90
2023/07/22 11:26:54;;;;;;;461.73;427.75;;;15.00;80.20;;;;;;4994336;28;20040;-90
2023/07/22 11:29:20;;;;;;;425.33;395.73;;;15.00;80.30;;;;;;5003869;28;20049;-90
2023/07/22 11:31:49;;;;;;;419.88;390.42;;;15.00;80.50;;;;;;4999951;28;20048;-90
2023/07/22 11:34:18;;;;;;;426.88;397.00;;;15.00;80.40;;;;;;5010617;28;20053;-90
2023/07/22 11:36:44;;;;;;;436.15;405.30;;;15.00;80.50;;;;;;5013195;28;20652;-90
2023/07/22 11:39:13;;;;;;;427.98;397.55;;;15.00;80.70;;;;;;5020220;28;20056;-89
2023/07/22 11:41:43;;;;;;;441.20;409.42;;;15.10;80.70;;;;;;5011913;28;20041;-90
2023/07/22 11:44:13;;;;;;;439.00;408.55;;;15.10;80.70;;;;;;5007305;28;20051;-90
2023/07/22 11:47:03;;;;;;;431.17;400.67;;;15.10;80.50;;;;;;5011620;28;20037;-91
2023/07/22 11:49:40;;;;;;;334.77;312.73;;;15.10;80.70;;;;;;5009889;28;20370;-89
2023/07/22 11:52:07;;;;;;;414.02;386.05;;;15.10;80.90;;;;;;4982665;28;20037;-90
2023/07/22 11:54:35;;;;;;;433.38;403.45;;;15.10;80.80;;;;;;5004367;28;20091;-90
2023/07/22 11:57:17;;;;;;;439.13;408.55;;;15.10;80.90;;;;;;5006692;28;20053;-90
2023/07/22 11:59:48;;;;;;;428.80;399.17;;;15.20;80.90;;;;;;5026479;28;20199;-94
2023/07/22 12:02:19;;;;;;;439.58;408.42;;;15.30;80.90;;;;;;5006136;28;20060;-90
2023/07/22 12:04:53;;;;;;;429.98;399.45;;;15.30;81.30;;;;;;5001885;28;20121;-90
2023/07/22 12:07:38;;;;;;;419.17;390.05;;;15.30;81.00;;;;;;4995548;28;20045;-90
2023/07/22 12:10:06;;;;;;;456.65;423.67;;;15.30;80.90;;;;;;5002822;28;20041;-89
2023/07/22 12:12:44;;;;;;;461.85;428.65;;;15.40;81.00;;;;;;5006405;28;20494;-90
2023/07/22 12:15:32;;;;;;;438.15;408.00;;;15.40;80.70;;;;;;5004213;28;20125;-90
2023/07/22 12:18:01;;;;;;;454.73;422.98;;;15.30;80.40;;;;;;4999920;28;20041;-94
2023/07/22 12:20:36;;;;;;;454.35;421.90;;;15.30;80.50;;;;;;5009401;28;20040;-90
2023/07/22 12:23:02;;;;;;;384.05;357.02;;;15.20;80.60;;;;;;4986443;28;20046;-90
2023/07/22 12:25:28;;;;;;;469.08;434.02;;;15.20;80.80;;;;;;5005577;28;20060;-91
2023/07/22 12:27:54;;;;;;;457.05;423.20;;;15.20;80.80;;;;;;5000759;28;20135;-90
2023/07/22 12:30:21;;;;;;;478.48;443.20;;;15.10;81.20;;;;;;5000229;28;20144;-90
2023/07/22 12:32:47;;;;;;;463.05;428.95;;;15.10;81.20;;;;;;4983845;28;20649;-90
2023/07/22 12:35:13;;;;;;;468.02;433.65;;;15.00;81.30;;;;;;5026241;28;20138;-89
2023/07/22 12:37:39;;;;;;;473.90;438.98;;;15.00;81.30;;;;;;4985192;28;20095;-90
2023/07/22 12:40:07;;;;;;;457.02;423.38;;;15.00;81.40;;;;;;5011849;28;20059;-89
2023/07/22 12:42:34;;;;;;;463.40;430.38;;;15.00;81.30;;;;;;5010464;28;20044;-90
2023/07/22 12:45:00;;;;;;;494.02;456.75;;;15.00;81.20;;;;;;5011795;28;20075;-89
2023/07/22 12:47:26;;;;;;;475.75;439.92;;;15.00;81.40;;;;;;5018638;28;20499;-90
2023/07/22 12:49:52;;;;;;;503.63;465.40;;;15.10;81.80;;;;;;4991142;28;20053;-90
2023/07/22 12:52:18;;;;;;;474.90;438.65;;;15.10;82.00;;;;;;5000766;28;20132;-90
2023/07/22 12:54:43;;;;;;;502.42;462.45;;;15.20;82.30;;;;;;5004105;28;20041;-91
2023/07/22 12:57:09;;;;;;;499.45;459.48;;;15.30;82.40;;;;;;4996811;28;20439;-90
2023/07/22 12:59:35;;;;;;;497.98;459.95;;;15.40;82.50;;;;;;5011253;28;20057;-90
2023/07/22 13:02:01;;;;;;;516.95;473.92;;;15.50;82.90;;;;;;5007084;28;20491;-92
2023/07/22 13:04:27;;;;;;;540.08;496.67;;;15.60;82.80;;;;;;4995696;28;20037;-91
2023/07/22 13:06:53;;;;;;;552.10;507.17;;;15.80;82.90;;;;;;4990024;28;20044;-92
2023/07/22 13:09:19;;;;;;;560.25;515.75;;;15.80;82.40;;;;;;5001314;28;20060;-92
2023/07/22 13:11:46;;;;;;;562.72;518.53;;;16.00;82.30;;;;;;5002192;28;20402;-91
2023/07/22 13:14:11;;;;;;;560.05;516.30;;;16.00;81.60;;;;;;4989025;28;20041;-92
2023/07/22 13:16:37;;;;;;;559.83;515.88;;;16.10;81.80;;;;;;4992886;28;20817;-91
2023/07/22 13:19:03;;;;;;;585.58;537.88;;;16.30;81.50;;;;;;5000151;28;20091;-91
2023/07/22 13:21:29;;;;;;;590.65;542.97;;;16.40;81.70;;;;;;4992704;28;20045;-91
2023/07/22 13:23:55;;;;;;;550.17;507.23;;;16.50;81.70;;;;;;4996369;28;20045;-90
2023/07/22 13:26:21;;;;;;;589.95;540.55;;;16.50;81.00;;;;;;4989444;28;20063;-91
2023/07/22 13:28:47;;;;;;;599.20;550.00;;;16.60;81.20;;;;;;4995520;28;20045;-91
2023/07/22 13:31:13;;;;;;;613.20;562.28;;;16.70;80.90;;;;;;5023761;28;20090;-92
2023/07/22 13:33:38;;;;;;;278.13;261.77;;;16.80;80.70;;;;;;5006537;28;20049;-91
2023/07/22 13:36:04;;;;;;;583.35;536.53;;;16.80;80.70;;;;;;4991943;28;20037;-92
2023/07/22 13:38:30;;;;;;;606.60;556.95;;;16.80;80.80;;;;;;4987351;28;20076;-89
2023/07/22 13:40:56;;;;;;;570.55;525.22;;;16.90;80.80;;;;;;5002974;28;20135;-91
2023/07/22 13:43:22;;;;;;;582.05;535.58;;;16.80;79.60;;;;;;4992454;28;20092;-91
2023/07/22 13:45:47;;;;;;;550.55;507.10;;;16.80;79.80;;;;;;4991618;28;20072;-90
2023/07/22 13:48:13;;;;;;;616.45;566.97;;;16.70;80.20;;;;;;4996937;28;20387;-91
2023/07/22 13:50:40;;;;;;;614.42;563.55;;;16.70;80.30;;;;;;4992628;28;20049;-92
2023/07/22 13:53:06;;;;;;;553.17;509.35;;;16.70;80.20;;;;;;5005952;28;20458;-90
2023/07/22 13:55:32;;;;;;;566.20;520.88;;;16.50;80.00;;;;;;5012593;28;20120;-91
2023/07/22 13:57:58;;;;;;;550.05;507.10;;;16.40;79.70;;;;;;4987709;28;20073;-91
2023/07/22 14:00:23;;;;;;;552.70;509.48;;;16.40;79.70;;;;;;5012321;28;20049;-90
2023/07/22 14:02:49;;;;;;;558.42;513.65;;;16.30;79.70;;;;;;4984569;28;20048;-91
2023/07/22 14:05:15;;;;;;;593.47;545.53;;;16.20;79.70;;;;;;5013558;28;20077;-90
2023/07/22 14:07:41;;;;;;;574.60;527.97;;;16.20;80.10;;;;;;5000581;28;20505;-90
2023/07/22 14:10:08;;;;;;;561.72;516.67;;;16.20;80.50;;;;;;5044118;28;20501;-90
2023/07/22 14:12:35;;;;;;;537.85;495.42;;;16.20;80.50;;;;;;5004290;28;20041;-91
2023/07/22 14:15:01;;;;;;;536.22;493.80;;;16.20;80.50;;;;;;5013503;28;20507;-90
2023/07/22 14:17:27;;;;;;;512.58;473.02;;;16.20;80.50;;;;;;5016008;28;20044;-89
2023/07/22 14:19:52;;;;;;;482.10;446.73;;;16.30;79.90;;;;;;5013988;28;20057;-89
2023/07/22 14:22:18;;;;;;;478.30;444.20;;;16.10;78.80;;;;;;5025770;28;20045;-89
2023/07/22 14:24:44;;;;;;;477.25;443.10;;;16.00;78.50;;;;;;4989829;28;20399;-90
2023/07/22 14:27:10;;;;;;;469.70;436.90;;;15.80;78.70;;;;;;5002843;28;20057;-90
2023/07/22 14:29:36;;;;;;;209.32;197.60;;;15.70;78.70;;;;;;5013434;28;20038;-90
2023/07/22 14:32:02;;;;;;;484.33;449.40;;;15.60;79.00;;;;;;5013330;28;20528;-90
2023/07/22 14:34:28;;;;;;;497.15;460.33;;;15.60;79.30;;;;;;4995575;28;20526;-90
2023/07/22 14:36:54;;;;;;;406.50;377.75;;;15.60;79.60;;;;;;5007892;28;20037;-90
2023/07/22 14:39:20;;;;;;;501.13;463.58;;;15.60;79.70;;;;;;5013568;28;20285;-89
2023/07/22 14:41:46;;;;;;;513.92;475.25;;;15.60;80.00;;;;;;5013352;28;20590;-89
2023/07/22 14:44:11;;;;;;;428.35;397.15;;;15.60;80.10;;;;;;4995484;28;20052;-90
2023/07/22 14:46:37;;;;;;;502.02;464.77;;;15.70;80.00;;;;;;4996505;28;20052;-90
2023/07/22 14:49:04;;;;;;;547.63;504.23;;;15.70;80.10;;;;;;5026700;28;20060;-90
2023/07/22 14:51:30;;;;;;;489.27;452.63;;;15.80;80.10;;;;;;5014070;28;20042;-89
2023/07/22 14:53:56;;;;;;;513.92;475.80;;;15.80;80.00;;;;;;5023711;28;20511;-90
2023/07/22 14:56:21;;;;;;;532.35;491.23;;;15.90;80.00;;;;;;4993605;28;20112;-90
2023/07/22 14:58:49;;;;;;;528.70;487.10;;;16.00;80.10;;;;;;5006452;28;20045;-91
2023/07/22 15:01:15;;;;;;;516.08;476.77;;;16.10;80.10;;;;;;5044240;28;20082;-90
2023/07/22 15:03:40;;;;;;;494.70;456.35;;;16.10;80.00;;;;;;5019475;28;20398;-90
2023/07/22 15:06:06;;;;;;;516.10;477.23;;;16.20;80.30;;;;;;5025977;28;20044;-90
2023/07/22 15:08:33;;;;;;;349.98;326.63;;;16.40;79.40;;;;;;5025116;28;20116;-95
2023/07/22 15:10:59;;;;;;;528.67;488.55;;;16.40;78.20;;;;;;5027717;28;20133;-90